createdAt,value
2019-01-29T01:36:03.105Z,1.68
2019-01-29T01:37:04.144Z,1.72
2019-01-29T01:38:04.089Z,1.70
2019-01-29T01:39:04.098Z,1.71
2019-01-29T01:40:04.093Z,1.74
2019-01-29T01:41:04.099Z,1.71
2019-01-29T01:42:04.053Z,1.71
2019-01-29T01:43:04.048Z,1.71
2019-01-29T01:44:04.031Z,1.67
2019-01-29T01:45:04.004Z,1.71
2019-01-29T01:46:03.991Z,1.57
2019-01-29T01:47:04.034Z,1.74
2019-01-29T01:48:03.983Z,1.68
2019-01-29T01:49:03.957Z,1.72
2019-01-29T01:50:03.972Z,1.68
2019-01-29T01:51:03.933Z,1.72
2019-01-29T01:52:03.941Z,1.64
2019-01-29T01:53:03.941Z,1.61
2019-01-29T01:54:03.922Z,1.68
2019-01-29T01:55:03.902Z,1.72
2019-01-29T01:56:03.922Z,1.70
2019-01-29T01:57:03.928Z,1.72
2019-01-29T01:58:03.862Z,1.71
2019-01-29T01:59:03.841Z,1.67
2019-01-29T02:00:03.965Z,1.68
2019-01-29T02:01:03.821Z,1.64
2019-01-29T02:02:03.834Z,1.65
2019-01-29T02:03:03.820Z,1.64
2019-01-29T02:04:03.788Z,1.64
2019-01-29T02:05:03.776Z,1.63
2019-01-29T02:06:03.776Z,1.67
2019-01-29T02:07:03.781Z,1.67
2019-01-29T02:08:03.741Z,1.64
2019-01-29T02:09:03.757Z,1.70
2019-01-29T02:10:03.724Z,1.67
2019-01-29T02:11:03.722Z,1.70
2019-01-29T02:12:03.730Z,1.68
2019-01-29T02:13:03.712Z,1.63
2019-01-29T02:14:03.687Z,1.67
2019-01-29T02:15:03.669Z,1.67
2019-01-29T02:16:03.686Z,1.67
2019-01-29T02:17:03.674Z,1.64
2019-01-29T02:18:03.648Z,1.63
2019-01-29T02:19:03.704Z,1.57
2019-01-29T02:20:03.634Z,1.64
2019-01-29T02:21:03.616Z,1.57
2019-01-29T02:22:03.610Z,1.60
2019-01-29T02:23:08.088Z,1.56
2019-01-29T02:24:03.585Z,1.57
2019-01-29T02:25:03.564Z,1.64
2019-01-29T02:26:03.588Z,1.53
2019-01-29T02:27:03.559Z,1.44
2019-01-29T02:28:03.559Z,1.56
2019-01-29T02:29:03.531Z,1.49
2019-01-29T02:30:03.540Z,1.49
2019-01-29T02:31:03.510Z,1.46
2019-01-29T02:32:03.535Z,1.53
2019-01-29T02:33:03.487Z,1.60
2019-01-29T02:34:03.465Z,1.43
2019-01-29T02:35:03.483Z,1.52
2019-01-29T02:36:03.457Z,1.49
2019-01-29T02:37:03.467Z,1.56
2019-01-29T02:38:03.445Z,1.56
2019-01-29T02:39:03.461Z,1.49
2019-01-29T02:40:03.417Z,1.49
2019-01-29T02:41:03.408Z,1.53
2019-01-29T02:42:03.419Z,1.50
2019-01-29T02:43:03.418Z,1.49
2019-01-29T02:44:03.374Z,1.49
2019-01-29T02:45:03.363Z,1.53
2019-01-29T02:46:03.349Z,1.57
2019-01-29T02:47:03.358Z,1.61
2019-01-29T02:48:03.346Z,1.49
2019-01-29T02:49:03.326Z,1.57
2019-01-29T02:50:03.319Z,1.49
2019-01-29T02:51:03.335Z,1.49
2019-01-29T02:52:03.303Z,1.49
2019-01-29T02:53:03.309Z,1.49
2019-01-29T02:54:03.256Z,1.52
2019-01-29T02:55:03.252Z,1.44
2019-01-29T02:56:03.235Z,1.61
2019-01-29T02:57:03.259Z,1.49
2019-01-29T02:58:03.233Z,1.56
2019-01-29T02:59:03.216Z,1.50
2019-01-29T03:00:03.332Z,1.44
2019-01-29T03:01:03.198Z,1.47
2019-01-29T03:02:03.190Z,1.44
2019-01-29T03:03:03.199Z,1.56
2019-01-29T03:04:03.156Z,1.49
2019-01-29T03:05:03.146Z,1.57
2019-01-29T03:06:03.163Z,1.56
2019-01-29T03:07:03.156Z,1.56
2019-01-29T03:08:03.115Z,1.57
2019-01-29T03:09:03.140Z,1.49
2019-01-29T03:10:03.116Z,1.49
2019-01-29T03:11:03.099Z,1.50
2019-01-29T03:12:03.117Z,1.53
2019-01-29T03:13:03.106Z,1.47
2019-01-29T03:14:03.052Z,1.46
2019-01-29T03:15:03.054Z,1.57
2019-01-29T03:16:03.044Z,1.53
2019-01-29T03:17:03.038Z,1.60
2019-01-29T03:18:03.005Z,1.49
2019-01-29T03:19:03.015Z,1.54
2019-01-29T03:20:02.987Z,1.50
2019-01-29T03:21:02.995Z,1.53
2019-01-29T03:22:03.006Z,1.50
2019-01-29T03:23:02.971Z,1.52
2019-01-29T03:24:02.980Z,1.54
2019-01-29T03:25:02.966Z,1.47
2019-01-29T03:26:02.955Z,1.57
2019-01-29T03:27:02.978Z,1.54
2019-01-29T03:28:02.961Z,1.60
2019-01-29T03:29:02.897Z,1.50
2019-01-29T03:30:02.953Z,1.49
2019-01-29T03:31:02.915Z,1.52
2019-01-29T03:32:02.880Z,1.50
2019-01-29T03:33:02.864Z,1.52
2019-01-29T03:34:02.858Z,1.47
2019-01-29T03:35:02.852Z,1.52
2019-01-29T05:01:05.052Z,0.95
2019-01-29T05:02:06.009Z,0.92
2019-01-29T05:03:06.018Z,0.98
2019-01-29T05:04:05.995Z,1.04
2019-01-29T05:05:06.007Z,1.06
2019-01-29T05:06:05.991Z,0.98
2019-01-29T05:07:05.983Z,0.92
2019-01-29T05:08:05.989Z,0.98
2019-01-29T05:09:05.991Z,1.04
2019-01-29T05:10:05.935Z,0.98
2019-01-29T05:11:05.948Z,0.93
2019-01-29T05:12:05.906Z,0.93
2019-01-29T05:13:05.903Z,1.08
2019-01-29T05:14:05.869Z,0.98
2019-01-29T05:15:05.863Z,1.00
2019-01-29T05:16:05.876Z,1.10
2019-01-29T05:17:05.853Z,1.11
2019-01-29T05:18:05.832Z,1.11
2019-01-29T05:19:05.816Z,1.06
2019-01-29T05:20:05.838Z,1.16
2019-01-29T05:21:05.828Z,1.16
2019-01-29T05:22:05.812Z,1.14
2019-01-29T05:23:05.804Z,1.18
2019-01-29T05:24:06.777Z,1.31
2019-01-29T05:25:05.773Z,1.31
2019-01-29T05:26:05.774Z,1.20
2019-01-29T05:27:05.800Z,1.24
2019-01-29T05:28:05.739Z,1.28
2019-01-29T05:29:05.722Z,1.28
2019-01-29T05:30:05.708Z,1.24
2019-01-29T05:31:05.711Z,1.28
2019-01-29T05:32:05.739Z,1.25
2019-01-29T05:33:05.775Z,1.20
2019-01-29T05:34:05.688Z,1.25
2019-01-29T05:35:05.657Z,1.25
2019-01-29T05:36:05.687Z,1.28
2019-01-29T05:37:05.652Z,1.28
2019-01-29T05:38:05.640Z,1.20
2019-01-29T05:39:05.651Z,1.28
2019-01-29T05:40:05.647Z,1.34
2019-01-29T05:41:05.617Z,1.25
2019-01-29T05:42:05.586Z,1.21
2019-01-29T05:43:05.566Z,1.21
2019-01-29T05:44:05.601Z,1.21
2019-01-29T05:45:05.576Z,1.10
2019-01-29T05:46:05.561Z,1.25
2019-01-29T05:47:05.539Z,1.26
2019-01-29T05:48:05.529Z,1.20
2019-01-29T05:49:05.519Z,1.20
2019-01-29T05:50:05.522Z,1.17
2019-01-29T05:51:05.496Z,1.17
2019-01-29T05:52:05.465Z,1.16
2019-01-29T05:53:05.496Z,1.17
2019-01-29T05:54:05.456Z,1.21
2019-01-29T05:55:05.463Z,1.20
2019-01-29T05:56:05.445Z,1.24
2019-01-29T05:57:05.414Z,1.18
2019-01-29T05:58:05.401Z,1.24
2019-01-29T05:59:05.433Z,1.06
2019-01-29T06:00:05.423Z,1.06
2019-01-29T06:01:05.379Z,1.10
2019-01-29T06:02:05.413Z,1.16
2019-01-29T06:03:05.350Z,1.14
2019-01-29T06:04:05.331Z,1.28
2019-01-29T06:05:05.321Z,1.20
2019-01-29T06:06:05.339Z,1.24
2019-01-29T06:07:05.317Z,1.08
2019-01-29T06:08:05.407Z,1.10
2019-01-29T06:09:05.284Z,1.17
2019-01-29T06:10:05.288Z,1.06
2019-01-29T06:11:05.284Z,1.04
2019-01-29T06:12:05.261Z,1.07
2019-01-29T06:13:05.259Z,1.07
2019-01-29T06:14:05.253Z,1.14
2019-01-29T06:15:05.234Z,1.04
2019-01-29T06:16:05.220Z,0.98
2019-01-29T06:17:05.204Z,1.06
2019-01-29T06:18:05.215Z,0.95
2019-01-29T06:19:05.188Z,0.99
2019-01-29T06:20:05.184Z,0.96
2019-01-29T06:21:05.171Z,0.98
2019-01-29T06:22:05.158Z,0.99
2019-01-29T06:23:05.132Z,0.98
2019-01-29T06:24:05.129Z,1.00
2019-01-29T06:25:05.128Z,1.07
2019-01-29T06:26:05.135Z,1.07
2019-01-29T06:27:05.113Z,1.07
2019-01-29T06:28:05.079Z,1.00
2019-01-29T06:29:05.079Z,0.98
2019-01-29T06:30:05.082Z,1.04
2019-01-29T06:31:05.066Z,0.93
2019-01-29T06:32:05.251Z,1.00
2019-01-29T06:33:05.021Z,0.95
2019-01-29T06:34:05.016Z,0.96
2019-01-29T06:35:05.036Z,0.96
2019-01-29T06:36:05.015Z,0.92
2019-01-29T06:37:04.993Z,1.00
2019-01-29T06:38:05.128Z,1.02
2019-01-29T06:39:04.967Z,1.10
2019-01-29T06:40:04.963Z,1.02
2019-01-29T06:41:05.112Z,1.02
2019-01-29T06:42:04.930Z,1.08
2019-01-29T06:43:04.916Z,1.07
2019-01-29T06:44:05.090Z,1.00
2019-01-29T06:45:04.884Z,1.10
2019-01-29T06:46:04.971Z,1.04
2019-01-29T06:47:05.199Z,1.04
2019-01-29T06:48:05.106Z,1.08
2019-01-29T06:49:04.921Z,1.06
2019-01-29T06:50:05.072Z,1.08
2019-01-29T06:51:05.063Z,1.14
2019-01-29T06:52:05.076Z,1.14
2019-01-29T06:53:04.992Z,1.25
2019-01-29T06:54:05.021Z,1.16
2019-01-29T06:55:05.066Z,1.17
2019-01-29T06:56:05.269Z,1.20
2019-01-29T06:57:05.130Z,1.14
2019-01-29T06:58:05.813Z,1.04
2019-01-29T06:59:04.786Z,1.11
2019-01-29T07:00:05.973Z,1.20
2019-01-29T07:02:37.029Z,1.18
2019-01-29T07:03:38.011Z,1.17
2019-01-29T07:04:37.974Z,1.25
2019-01-29T07:05:37.965Z,1.17
2019-01-29T07:06:38.001Z,1.25
2019-01-29T07:07:38.076Z,1.28
2019-01-29T07:08:37.952Z,1.31
2019-01-29T07:09:38.216Z,1.20
2019-01-29T07:10:37.986Z,1.16
2019-01-29T07:11:38.082Z,1.21
2019-01-29T07:12:37.921Z,1.25
2019-01-29T07:13:37.902Z,1.26
2019-01-29T07:14:37.877Z,1.20
2019-01-29T07:15:37.873Z,1.31
2019-01-29T07:16:38.000Z,1.24
2019-01-29T07:17:37.885Z,1.21
2019-01-29T07:18:37.830Z,1.29
2019-01-29T07:19:37.818Z,1.29
2019-01-29T07:20:37.846Z,1.26
2019-01-29T07:21:37.841Z,1.28
2019-01-29T07:22:37.983Z,1.32
2019-01-29T07:23:37.791Z,1.32
2019-01-29T07:24:42.761Z,1.35
2019-01-29T07:25:37.813Z,1.32
2019-01-29T07:26:37.962Z,1.26
2019-01-29T07:27:37.771Z,1.31
2019-01-29T07:28:37.813Z,1.34
2019-01-29T07:29:37.726Z,1.31
2019-01-29T07:30:37.781Z,1.32
2019-01-29T07:31:37.798Z,1.38
2019-01-29T07:32:37.706Z,1.39
2019-01-29T07:33:37.671Z,1.43
2019-01-29T07:34:37.712Z,1.38
2019-01-29T07:35:37.787Z,1.36
2019-01-29T07:36:37.664Z,1.36
2019-01-29T07:37:37.700Z,1.36
2019-01-29T07:38:37.626Z,1.36
2019-01-29T07:39:37.624Z,1.39
2019-01-29T07:40:37.650Z,1.34
2019-01-29T07:41:37.583Z,1.39
2019-01-29T07:42:37.591Z,1.34
2019-01-29T07:43:37.625Z,1.34
2019-01-29T07:44:37.571Z,1.34
2019-01-29T07:45:37.544Z,1.35
2019-01-29T07:46:37.538Z,1.35
2019-01-29T07:47:37.538Z,1.34
2019-01-29T07:48:37.521Z,1.44
2019-01-29T07:49:37.537Z,1.34
2019-01-29T07:50:37.542Z,1.36
2019-01-29T07:51:37.945Z,1.39
2019-01-29T07:52:37.505Z,1.38
2019-01-29T07:53:37.481Z,1.36
2019-01-29T07:54:37.482Z,1.34
2019-01-29T07:55:37.472Z,1.47
2019-01-29T07:56:37.429Z,1.44
2019-01-29T07:57:37.455Z,1.32
2019-01-29T07:58:37.461Z,1.32
2019-01-29T07:59:38.208Z,1.36
2019-01-29T08:00:37.402Z,1.38
2019-01-29T08:01:37.390Z,1.32
2019-01-29T08:02:37.389Z,1.39
2019-01-29T08:03:38.281Z,1.44
2019-01-29T08:04:37.423Z,1.47
2019-01-29T08:05:37.331Z,1.38
2019-01-29T08:06:37.479Z,1.44
2019-01-29T08:07:37.344Z,1.42
2019-01-29T08:08:37.299Z,1.39
2019-01-29T08:09:37.294Z,1.38
2019-01-29T08:10:37.271Z,1.34
2019-01-29T08:11:37.279Z,1.39
2019-01-29T08:12:37.285Z,1.36
2019-01-29T08:13:37.269Z,1.52
2019-01-29T08:14:37.239Z,1.47
2019-01-29T08:15:37.235Z,1.38
2019-01-29T08:16:37.214Z,1.39
2019-01-29T08:17:37.228Z,1.46
2019-01-29T08:18:37.220Z,1.44
2019-01-29T08:19:37.214Z,1.43
2019-01-29T08:20:37.186Z,1.50
2019-01-29T08:21:37.180Z,1.47
2019-01-29T08:22:37.181Z,1.49
2019-01-29T08:23:37.187Z,1.50
2019-01-29T08:24:37.142Z,1.56
2019-01-29T08:25:37.146Z,1.46
2019-01-29T08:26:37.161Z,1.49
2019-01-29T08:27:37.187Z,1.56
2019-01-29T08:28:37.097Z,1.50
2019-01-29T08:29:37.077Z,1.47
2019-01-29T08:30:37.204Z,1.52
2019-01-29T08:31:37.061Z,1.47
2019-01-29T08:32:37.088Z,1.57
2019-01-29T08:33:37.035Z,1.54
2019-01-29T08:34:37.053Z,1.49
2019-01-29T08:35:37.054Z,1.61
2019-01-29T08:36:37.045Z,1.57
2019-01-29T08:37:36.994Z,1.49
2019-01-29T08:38:37.031Z,1.46
2019-01-29T08:39:37.030Z,1.53
2019-01-29T08:40:36.980Z,1.52
2019-01-29T08:41:36.990Z,1.50
2019-01-29T08:42:37.013Z,1.61
2019-01-29T08:43:36.956Z,1.60
2019-01-29T08:44:36.925Z,1.56
2019-01-29T08:45:36.912Z,1.56
2019-01-29T08:46:38.692Z,1.60
2019-01-29T08:47:36.953Z,1.56
2019-01-29T08:48:36.907Z,1.64
2019-01-29T08:49:36.861Z,1.64
2019-01-29T08:50:36.865Z,1.72
2019-01-29T08:51:36.889Z,1.61
2019-01-29T08:52:36.828Z,1.65
2019-01-29T08:53:36.835Z,1.71
2019-01-29T08:54:36.816Z,1.68
2019-01-29T08:55:36.802Z,1.64
2019-01-29T08:56:36.836Z,1.70
2019-01-29T08:57:36.811Z,1.64
2019-01-29T08:58:36.988Z,1.64
2019-01-29T08:59:36.770Z,1.64
2019-01-29T09:00:36.794Z,1.71
2019-01-29T09:01:36.741Z,1.65
2019-01-29T09:04:09.447Z,1.74
2019-01-29T09:05:10.448Z,1.83
2019-01-29T09:06:10.433Z,1.82
2019-01-29T09:07:10.404Z,1.83
2019-01-29T09:08:10.545Z,1.75
2019-01-29T09:09:10.419Z,1.79
2019-01-29T09:10:10.377Z,1.86
2019-01-29T09:11:10.479Z,2.02
2019-01-29T09:12:10.361Z,2.04
2019-01-29T09:13:10.322Z,2.12
2019-01-29T09:14:11.275Z,2.15
2019-01-29T09:15:10.621Z,2.11
2019-01-29T09:16:10.910Z,2.09
2019-01-29T09:17:12.270Z,2.09
2019-01-29T09:18:11.282Z,2.25
2019-01-29T09:19:10.283Z,2.12
2019-01-29T09:20:13.175Z,2.12
2019-01-29T09:21:10.306Z,2.14
2019-01-29T09:22:10.239Z,2.19
2019-01-29T09:23:11.433Z,2.18
2019-01-29T09:24:11.071Z,2.20
2019-01-29T09:25:18.975Z,2.18
2019-01-29T09:26:10.270Z,2.30
2019-01-29T09:27:10.213Z,2.36
2019-01-29T09:28:10.179Z,2.37
2019-01-29T09:29:17.612Z,2.32
2019-01-29T09:30:10.186Z,2.32
2019-01-29T09:31:10.221Z,2.33
2019-01-29T09:32:11.340Z,2.32
2019-01-29T09:33:10.101Z,2.36
2019-01-29T09:34:10.150Z,2.33
2019-01-29T09:35:10.140Z,2.30
2019-01-29T09:36:10.184Z,2.36
2019-01-29T09:37:10.088Z,2.40
2019-01-29T09:38:10.055Z,2.41
2019-01-29T09:39:10.062Z,2.58
2019-01-29T09:40:10.067Z,2.65
2019-01-29T09:41:10.094Z,2.61
2019-01-29T09:42:10.319Z,2.65
2019-01-29T09:43:10.017Z,2.61
2019-01-29T09:44:10.004Z,2.61
2019-01-29T09:45:09.988Z,2.58
2019-01-29T09:46:10.776Z,2.59
2019-01-29T09:47:09.972Z,2.62
2019-01-29T09:48:09.971Z,2.76
2019-01-29T09:49:11.226Z,2.65
2019-01-29T09:50:10.012Z,2.80
2019-01-29T09:51:09.936Z,2.74
2019-01-29T09:52:09.940Z,2.68
2019-01-29T09:53:09.881Z,2.79
2019-01-29T09:54:09.885Z,2.84
2019-01-29T09:55:09.877Z,2.77
2019-01-29T09:56:09.908Z,2.77
2019-01-29T09:57:09.858Z,2.74
2019-01-29T09:58:10.661Z,2.80
2019-01-29T09:59:10.307Z,2.81
2019-01-29T10:00:10.433Z,2.76
2019-01-29T10:01:09.856Z,2.95
2019-01-29T10:02:09.820Z,2.87
2019-01-29T10:03:10.057Z,2.86
2019-01-29T10:04:09.782Z,2.92
2019-01-29T10:05:09.770Z,3.01
2019-01-29T10:06:09.864Z,3.05
2019-01-29T10:07:09.952Z,3.02
2019-01-29T10:08:11.372Z,3.10
2019-01-29T10:09:09.727Z,3.15
2019-01-29T10:10:09.707Z,3.01
2019-01-29T10:11:09.701Z,2.86
2019-01-29T10:12:09.965Z,2.83
2019-01-29T10:13:09.691Z,2.84
2019-01-29T10:14:09.722Z,2.89
2019-01-29T10:15:09.654Z,2.99
2019-01-29T10:16:10.040Z,2.99
2019-01-29T10:17:09.661Z,3.01
2019-01-29T10:18:09.630Z,3.08
2019-01-29T10:19:09.615Z,3.13
2019-01-29T10:20:09.610Z,3.07
2019-01-29T10:21:09.611Z,2.98
2019-01-29T10:22:09.599Z,3.01
2019-01-29T10:23:09.569Z,2.90
2019-01-29T10:24:09.617Z,3.08
2019-01-29T10:25:09.554Z,3.02
2019-01-29T10:26:09.517Z,3.05
2019-01-29T10:27:09.620Z,3.05
2019-01-29T10:28:09.547Z,3.10
2019-01-29T10:29:09.502Z,3.08
2019-01-29T10:30:09.489Z,3.05
2019-01-29T10:31:09.482Z,3.10
2019-01-29T10:32:09.511Z,3.04
2019-01-29T10:33:10.007Z,3.10
2019-01-29T10:35:30.240Z,3.22
2019-01-29T10:36:31.710Z,3.20
2019-01-29T10:37:31.663Z,3.26
2019-01-29T10:38:31.104Z,3.22
2019-01-29T10:39:31.091Z,3.12
2019-01-29T10:40:31.049Z,3.07
2019-01-29T10:41:31.030Z,3.25
2019-01-29T10:42:31.200Z,3.30
2019-01-29T10:43:39.894Z,3.37
2019-01-29T10:44:31.019Z,3.49
2019-01-29T10:45:31.008Z,3.54
2019-01-29T10:46:31.186Z,3.30
2019-01-29T10:47:30.962Z,3.44
2019-01-29T10:48:30.951Z,3.33
2019-01-29T10:49:30.982Z,3.45
2019-01-29T10:50:30.962Z,3.54
2019-01-29T10:51:31.284Z,3.46
2019-01-29T10:52:31.018Z,3.49
2019-01-29T10:53:30.969Z,3.49
2019-01-29T10:54:31.000Z,3.42
2019-01-29T10:55:30.898Z,3.35
2019-01-29T10:56:30.925Z,3.22
2019-01-29T10:57:30.889Z,3.35
2019-01-29T10:58:30.867Z,3.50
2019-01-29T10:59:30.870Z,3.34
2019-01-29T11:00:30.845Z,3.33
2019-01-29T11:01:30.949Z,3.37
2019-01-29T11:02:30.851Z,3.41
2019-01-29T11:03:30.830Z,3.22
2019-01-29T11:04:30.826Z,3.25
2019-01-29T11:05:30.812Z,3.37
2019-01-29T11:06:30.805Z,3.41
2019-01-29T11:07:31.030Z,3.35
2019-01-29T11:08:30.769Z,3.44
2019-01-29T11:09:30.767Z,3.67
2019-01-29T11:10:30.732Z,3.62
2019-01-29T11:11:30.739Z,3.60
2019-01-29T11:12:30.699Z,3.78
2019-01-29T11:13:30.688Z,3.62
2019-01-29T11:14:30.706Z,3.63
2019-01-29T11:15:31.979Z,3.64
2019-01-29T11:16:31.702Z,3.56
2019-01-29T11:17:30.662Z,3.46
2019-01-29T11:18:30.633Z,3.26
2019-01-29T11:19:30.639Z,3.23
2019-01-29T11:20:30.609Z,3.31
2019-01-29T11:21:30.651Z,3.39
2019-01-29T11:22:30.591Z,3.41
2019-01-29T11:23:30.592Z,3.37
2019-01-29T11:24:30.647Z,3.44
2019-01-29T11:25:30.574Z,3.39
2019-01-29T11:26:30.569Z,3.35
2019-01-29T11:27:31.055Z,3.42
2019-01-29T11:28:30.543Z,3.22
2019-01-29T11:29:31.453Z,3.22
2019-01-29T11:30:32.139Z,3.17
2019-01-29T11:31:30.517Z,3.17
2019-01-29T11:32:30.489Z,3.25
2019-01-29T11:33:30.505Z,3.34
2019-01-29T11:34:30.466Z,3.28
2019-01-29T11:35:30.613Z,3.28
2019-01-29T11:36:33.346Z,3.33
2019-01-29T11:37:34.362Z,3.44
2019-01-29T11:38:30.418Z,3.53
2019-01-29T11:39:30.479Z,3.60
2019-01-29T11:40:30.422Z,3.52
2019-01-29T11:41:30.396Z,3.59
2019-01-29T11:42:30.389Z,3.59
2019-01-29T11:43:30.375Z,3.71
2019-01-29T11:44:30.575Z,3.64
2019-01-29T11:45:30.449Z,3.50
2019-01-29T11:46:30.490Z,3.60
2019-01-29T11:47:30.401Z,3.63
2019-01-29T11:48:30.394Z,3.57
2019-01-29T11:49:30.605Z,3.63
2019-01-29T11:50:30.420Z,3.77
2019-01-29T11:51:30.593Z,3.68
2019-01-29T11:52:30.438Z,3.71
2019-01-29T11:53:30.354Z,3.71
2019-01-29T11:54:30.620Z,3.88
2019-01-29T11:55:30.254Z,3.93
2019-01-29T11:56:30.226Z,3.75
2019-01-29T11:57:30.347Z,3.75
2019-01-29T11:58:30.232Z,3.72
2019-01-29T11:59:30.306Z,3.81
2019-01-29T12:00:30.287Z,3.86
2019-01-29T12:01:30.257Z,4.04
2019-01-29T12:02:30.410Z,3.98
2019-01-29T12:03:30.230Z,3.99
2019-01-29T12:04:30.235Z,3.92
2019-01-29T12:05:30.173Z,3.89
2019-01-29T12:06:31.028Z,3.98
2019-01-29T12:07:30.116Z,3.98
2019-01-29T12:08:30.097Z,3.81
2019-01-29T12:09:30.122Z,3.70
2019-01-29T12:10:30.090Z,3.81
2019-01-29T12:11:30.092Z,3.93
2019-01-29T12:12:30.170Z,3.98
2019-01-29T12:13:30.067Z,3.96
2019-01-29T12:14:30.077Z,3.99
2019-01-29T12:15:30.009Z,3.95
2019-01-29T12:16:30.013Z,4.06
2019-01-29T12:17:30.025Z,4.16
2019-01-29T12:18:29.997Z,4.11
2019-01-29T12:19:29.970Z,4.25
2019-01-29T12:20:29.975Z,4.24
2019-01-29T12:21:30.072Z,4.28
2019-01-29T12:22:29.953Z,4.32
2019-01-29T12:23:29.978Z,4.29
2019-01-29T12:24:29.939Z,4.26
2019-01-29T12:25:29.944Z,4.25
2019-01-29T12:26:29.921Z,4.31
2019-01-29T12:27:29.911Z,4.14
2019-01-29T12:28:29.889Z,4.11
2019-01-29T12:29:29.872Z,4.20
2019-01-29T12:30:29.860Z,4.26
2019-01-29T12:31:29.896Z,4.26
2019-01-29T12:32:29.864Z,4.29
2019-01-29T12:33:29.814Z,4.38
2019-01-29T12:34:29.807Z,4.42
2019-01-29T12:37:24.386Z,4.39
2019-01-29T12:38:25.400Z,4.26
2019-01-29T12:39:25.354Z,4.43
2019-01-29T12:40:25.353Z,4.18
2019-01-29T12:41:25.334Z,4.21
2019-01-29T12:42:25.357Z,4.20
2019-01-29T12:43:25.315Z,4.31
2019-01-29T12:44:25.305Z,4.29
2019-01-29T12:45:25.327Z,4.34
2019-01-29T12:46:25.315Z,4.43
2019-01-29T12:47:25.433Z,4.28
2019-01-29T12:48:25.276Z,4.20
2019-01-29T12:49:25.233Z,4.25
2019-01-29T12:50:25.245Z,4.25
2019-01-29T12:51:25.237Z,4.10
2019-01-29T12:52:25.217Z,4.00
2019-01-29T12:53:25.210Z,4.11
2019-01-29T12:54:25.183Z,4.20
2019-01-29T12:55:25.187Z,4.28
2019-01-29T12:56:25.213Z,4.29
2019-01-29T12:57:25.224Z,4.35
2019-01-29T12:58:25.211Z,4.38
2019-01-29T12:59:25.169Z,4.36
2019-01-29T13:00:25.127Z,4.35
2019-01-29T13:01:25.162Z,4.43
2019-01-29T13:02:25.162Z,4.56
2019-01-29T13:03:25.145Z,4.75
2019-01-29T13:04:25.094Z,4.61
2019-01-29T13:05:25.109Z,4.65
2019-01-29T13:06:25.076Z,4.54
2019-01-29T13:07:25.074Z,4.65
2019-01-29T13:08:25.111Z,4.71
2019-01-29T13:09:25.015Z,4.49
2019-01-29T13:10:25.055Z,4.51
2019-01-29T13:11:25.024Z,4.47
2019-01-29T13:12:25.018Z,4.34
2019-01-29T13:13:25.006Z,4.49
2019-01-29T13:14:25.027Z,4.56
2019-01-29T13:15:24.959Z,4.57
2019-01-29T13:16:24.991Z,4.57
2019-01-29T13:17:24.950Z,4.61
2019-01-29T13:18:25.037Z,4.53
2019-01-29T13:19:24.979Z,4.54
2019-01-29T13:20:25.007Z,4.68
2019-01-29T13:21:24.942Z,4.51
2019-01-29T13:22:24.962Z,4.61
2019-01-29T13:23:24.968Z,4.64
2019-01-29T13:24:24.891Z,4.53
2019-01-29T13:25:24.876Z,4.54
2019-01-29T13:26:29.863Z,4.61
2019-01-29T13:27:24.892Z,4.69
2019-01-29T14:23:04.265Z,4.47
2019-01-29T14:24:05.225Z,4.46
2019-01-29T14:25:05.198Z,4.56
2019-01-29T14:26:05.214Z,4.31
2019-01-29T14:27:05.181Z,4.39
2019-01-29T14:28:05.228Z,4.35
2019-01-29T14:29:05.205Z,4.53
2019-01-29T14:30:05.265Z,4.49
2019-01-29T14:31:05.149Z,4.59
2019-01-29T14:32:05.145Z,4.44
2019-01-29T14:33:05.162Z,4.34
2019-01-29T14:34:05.102Z,4.43
2019-01-29T14:35:05.095Z,4.38
2019-01-29T14:36:05.096Z,4.34
2019-01-29T14:37:05.063Z,4.29
2019-01-29T14:38:05.087Z,4.28
2019-01-29T14:39:05.051Z,4.25
2019-01-29T14:40:05.059Z,4.29
2019-01-29T14:41:05.031Z,4.25
2019-01-29T14:42:05.021Z,4.28
2019-01-29T14:43:05.049Z,4.28
2019-01-29T14:44:05.030Z,4.25
2019-01-29T14:45:04.999Z,4.21
2019-01-29T14:46:04.975Z,4.28
2019-01-29T14:47:04.962Z,4.29
2019-01-29T14:48:04.987Z,4.28
2019-01-29T14:49:04.979Z,4.31
2019-01-29T14:50:04.940Z,4.32
2019-01-29T14:51:04.920Z,4.25
2019-01-29T14:52:04.914Z,4.26
2019-01-29T14:53:04.894Z,4.16
2019-01-29T14:54:04.927Z,4.18
2019-01-29T14:55:04.900Z,4.07
2019-01-29T14:56:04.855Z,4.13
2019-01-29T14:57:04.864Z,3.98
2019-01-29T14:58:04.836Z,4.00
2019-01-29T14:59:04.852Z,4.00
2019-01-29T15:00:04.840Z,4.00
2019-01-29T15:01:04.818Z,4.06
2019-01-29T15:02:04.834Z,3.90
2019-01-29T15:03:04.809Z,3.98
2019-01-29T15:04:04.803Z,3.99
2019-01-29T15:05:04.767Z,3.98
2019-01-29T15:06:04.758Z,3.96
2019-01-29T15:07:04.744Z,4.00
2019-01-29T15:08:04.728Z,3.99
2019-01-29T15:09:04.745Z,3.95
2019-01-29T15:10:04.740Z,4.04
2019-01-29T15:11:04.712Z,3.92
2019-01-29T15:12:04.686Z,4.04
2019-01-29T15:13:04.705Z,3.93
2019-01-29T15:14:04.687Z,3.98
2019-01-29T15:15:04.672Z,4.07
2019-01-29T15:16:04.645Z,4.00
2019-01-29T15:17:04.636Z,3.99
2019-01-29T15:18:04.628Z,3.98
2019-01-29T15:19:04.640Z,4.00
2019-01-29T15:20:04.621Z,3.95
2019-01-29T15:21:04.606Z,4.06
2019-01-29T15:22:04.588Z,4.02
2019-01-29T15:23:04.565Z,4.07
2019-01-29T15:24:04.586Z,3.95
2019-01-29T15:25:04.560Z,3.96
2019-01-29T15:26:04.536Z,3.92
2019-01-29T15:27:05.742Z,3.88
2019-01-29T15:28:04.529Z,3.78
2019-01-29T15:29:04.537Z,3.78
2019-01-29T15:30:04.517Z,3.78
2019-01-29T15:31:04.506Z,3.77
2019-01-29T15:32:04.559Z,3.67
2019-01-29T15:33:04.473Z,3.72
2019-01-29T15:34:04.476Z,3.71
2019-01-29T15:35:04.462Z,3.72
2019-01-29T15:36:04.446Z,3.63
2019-01-29T15:37:04.427Z,3.59
2019-01-29T15:38:04.437Z,3.56
2019-01-29T15:39:04.417Z,3.53
2019-01-29T15:40:04.394Z,3.56
2019-01-29T15:41:04.382Z,3.46
2019-01-29T15:42:04.377Z,3.45
2019-01-29T15:43:04.365Z,3.45
2019-01-29T15:44:04.368Z,3.46
2019-01-29T15:45:04.330Z,3.39
2019-01-29T15:46:04.329Z,3.44
2019-01-29T15:47:04.320Z,3.46
2019-01-29T15:48:04.311Z,3.46
2019-01-29T15:49:04.318Z,3.39
2019-01-29T15:50:04.289Z,3.25
2019-01-29T15:51:04.266Z,3.28
2019-01-29T15:52:04.269Z,3.26
2019-01-29T15:53:04.250Z,3.26
2019-01-29T15:54:04.269Z,3.20
2019-01-29T15:55:04.588Z,3.20
2019-01-29T15:56:04.229Z,3.16
2019-01-29T15:57:04.217Z,3.05
2019-01-29T15:58:04.196Z,2.99
2019-01-29T15:59:04.196Z,3.01
2019-01-29T16:00:04.213Z,2.99
2019-01-29T16:01:04.171Z,3.04
2019-01-29T16:02:04.146Z,3.10
2019-01-29T16:03:04.139Z,3.05
2019-01-29T16:04:04.161Z,3.01
2019-01-29T16:05:04.130Z,3.07
2019-01-29T16:06:04.111Z,2.92
2019-01-29T16:07:04.106Z,2.87
2019-01-29T16:08:04.097Z,2.80
2019-01-29T16:09:04.106Z,2.74
2019-01-29T16:10:04.067Z,2.65
2019-01-29T16:11:04.062Z,2.61
2019-01-29T16:12:04.039Z,2.58
2019-01-29T16:13:04.050Z,2.61
2019-01-29T16:14:04.062Z,2.61
2019-01-29T16:15:04.051Z,2.51
2019-01-29T16:16:04.013Z,2.48
2019-01-29T16:17:03.996Z,2.45
2019-01-29T16:18:04.020Z,2.43
2019-01-29T16:19:03.982Z,2.47
2019-01-29T16:20:03.999Z,2.53
2019-01-29T16:21:03.951Z,2.47
2019-01-29T16:22:03.940Z,2.55
2019-01-29T16:24:13.127Z,2.61
2019-01-29T16:25:14.127Z,2.61
2019-01-29T16:26:14.096Z,2.58
2019-01-29T16:27:22.364Z,2.50
2019-01-29T16:28:14.088Z,2.47
2019-01-29T16:29:14.068Z,2.41
2019-01-29T16:30:14.083Z,2.30
2019-01-29T16:31:14.057Z,2.33
2019-01-29T16:32:14.042Z,2.44
2019-01-29T16:33:14.025Z,2.26
2019-01-29T16:34:14.038Z,2.29
2019-01-29T16:35:14.010Z,2.26
2019-01-29T16:36:13.986Z,2.33
2019-01-29T16:37:13.980Z,2.18
2019-01-29T16:38:13.975Z,2.29
2019-01-29T16:39:13.970Z,2.23
2019-01-29T16:40:13.965Z,2.15
2019-01-29T16:41:13.973Z,2.26
2019-01-29T16:42:13.922Z,2.19
2019-01-29T16:43:13.921Z,2.19
2019-01-29T16:44:13.900Z,2.18
2019-01-29T16:45:13.913Z,2.26
2019-01-29T16:46:13.920Z,2.19
2019-01-29T16:47:13.889Z,2.14
2019-01-29T16:48:13.862Z,2.12
2019-01-29T16:49:13.878Z,2.19
2019-01-29T16:50:13.836Z,2.27
2019-01-29T16:51:13.840Z,2.19
2019-01-29T16:52:13.823Z,2.12
2019-01-29T16:53:13.818Z,2.01
2019-01-29T16:54:13.798Z,2.09
2019-01-29T16:55:13.801Z,2.12
2019-01-29T16:56:13.805Z,2.15
2019-01-29T16:57:13.784Z,2.11
2019-01-29T16:58:13.783Z,2.12
2019-01-29T16:59:13.750Z,2.12
2019-01-29T17:00:13.736Z,2.15
2019-01-29T17:01:13.735Z,2.08
2019-01-29T17:02:13.727Z,2.04
2019-01-29T17:03:13.701Z,1.93
2019-01-29T17:04:13.725Z,2.04
2019-01-29T17:05:13.670Z,2.01
2019-01-29T17:06:13.683Z,2.01
2019-01-29T17:07:13.671Z,1.95
2019-01-29T17:08:13.646Z,1.89
2019-01-29T17:09:13.633Z,1.95
2019-01-29T17:10:13.631Z,2.08
2019-01-29T17:11:13.633Z,2.01
2019-01-29T17:12:13.607Z,1.95
2019-01-29T17:13:13.598Z,1.95
2019-01-29T17:14:13.589Z,1.95
2019-01-29T17:15:13.572Z,1.92
2019-01-29T17:16:13.573Z,1.81
2019-01-29T17:17:13.551Z,1.83
2019-01-29T17:18:13.540Z,1.88
2019-01-29T17:19:13.733Z,1.79
2019-01-29T17:20:13.518Z,1.72
2019-01-29T17:21:13.517Z,1.72